createdAt,value
2023-02-23T00:00:51.775Z,21.70
2023-02-23T00:03:21.525Z,22.23
2023-02-23T00:05:49.800Z,22.60
2023-02-23T00:08:18.121Z,22.63
2023-02-23T00:10:48.335Z,26.77
2023-02-23T00:15:44.745Z,23.75
2023-02-23T00:18:14.331Z,22.27
2023-02-23T00:20:47.920Z,22.90
2023-02-23T00:23:16.472Z,21.95
2023-02-23T00:25:46.610Z,24.33
2023-02-23T00:28:17.073Z,23.45
2023-02-23T00:30:46.714Z,23.80
2023-02-23T00:35:44.011Z,19.88
2023-02-23T00:38:14.245Z,23.17
2023-02-23T00:40:43.158Z,22.55
2023-02-23T00:43:11.572Z,22.38
2023-02-23T00:45:42.123Z,26.15
2023-02-23T00:48:11.074Z,25.35
2023-02-23T00:50:41.954Z,23.63
2023-02-23T00:53:11.573Z,25.50
2023-02-23T00:58:14.065Z,28.25
2023-02-23T01:00:44.757Z,22.42
2023-02-23T01:03:13.209Z,23.92
2023-02-23T01:05:41.893Z,20.08
2023-02-23T01:08:11.836Z,24.45
2023-02-23T01:10:44.343Z,20.20
2023-02-23T01:13:13.654Z,23.65
2023-02-23T01:15:48.280Z,27.35
2023-02-23T01:18:17.596Z,26.83
2023-02-23T01:23:16.103Z,20.80
2023-02-23T01:25:46.584Z,20.52
2023-02-23T01:28:15.450Z,19.08
2023-02-23T01:30:45.714Z,18.55
2023-02-23T01:33:14.344Z,26.85
2023-02-23T01:35:43.944Z,27.40
2023-02-23T01:38:15.688Z,26.02
2023-02-23T01:43:20.965Z,19.83
2023-02-23T01:45:50.998Z,22.70
2023-02-23T01:48:22.839Z,23.50
2023-02-23T01:50:55.657Z,31.30
2023-02-23T01:53:26.212Z,22.30
2023-02-23T01:55:58.836Z,21.00
2023-02-23T01:58:29.892Z,22.08
2023-02-23T02:01:02.440Z,21.70
2023-02-23T02:03:35.958Z,24.85
2023-02-23T02:06:06.293Z,22.45
2023-02-23T02:11:10.068Z,21.77
2023-02-23T02:13:38.255Z,23.33
2023-02-23T02:16:45.298Z,21.08
2023-02-23T02:19:50.303Z,25.55
2023-02-23T02:22:38.357Z,22.83
2023-02-23T02:25:29.397Z,26.40
2023-02-23T02:28:22.478Z,27.48
2023-02-23T02:31:19.958Z,20.15
2023-02-23T02:34:22.495Z,25.58
2023-02-23T02:37:21.912Z,22.95
2023-02-23T02:40:15.894Z,17.88
2023-02-23T02:43:00.340Z,22.40
2023-02-23T02:45:34.423Z,21.92
2023-02-23T02:48:12.074Z,21.35
2023-02-23T02:50:47.752Z,23.38
2023-02-23T02:53:24.129Z,31.55
2023-02-23T02:55:56.624Z,20.70
2023-02-23T02:58:25.900Z,29.77
2023-02-23T03:01:11.908Z,21.42
2023-02-23T03:04:00.079Z,19.25
2023-02-23T03:06:50.669Z,19.75
2023-02-23T03:09:50.823Z,17.92
2023-02-23T03:12:48.585Z,22.10
2023-02-23T03:15:54.031Z,23.38
2023-02-23T03:19:02.802Z,25.83
2023-02-23T03:21:54.924Z,16.73
2023-02-23T03:24:52.978Z,22.42
2023-02-23T03:27:46.196Z,26.13
2023-02-23T03:30:39.732Z,22.65
2023-02-23T03:33:34.012Z,23.42
2023-02-23T03:36:24.108Z,30.17
2023-02-23T03:39:16.721Z,19.85
2023-02-23T03:42:07.704Z,24.95
2023-02-23T03:44:58.858Z,21.73
2023-02-23T03:47:54.461Z,24.63
2023-02-23T03:50:45.346Z,21.02
2023-02-23T03:53:36.314Z,22.65
2023-02-23T03:56:24.227Z,30.38
2023-02-23T03:59:18.339Z,22.08
2023-02-23T04:02:05.448Z,21.48
2023-02-23T04:04:52.152Z,20.77
2023-02-23T04:07:39.154Z,22.27
2023-02-23T04:10:27.771Z,22.63
2023-02-23T04:13:16.345Z,20.23
2023-02-23T04:15:50.050Z,19.30
2023-02-23T04:18:26.227Z,20.85
2023-02-23T04:20:55.881Z,23.67
2023-02-23T04:25:53.953Z,20.60
2023-02-23T04:30:53.801Z,20.37
2023-02-23T04:33:25.114Z,22.90
2023-02-23T04:35:54.392Z,18.92
2023-02-23T04:38:23.145Z,18.80
2023-02-23T04:40:51.898Z,22.50
2023-02-23T04:43:20.325Z,26.13
2023-02-23T04:45:49.093Z,20.27
2023-02-23T04:48:19.591Z,25.90
2023-02-23T04:50:47.912Z,24.50
2023-02-23T04:53:17.823Z,28.92
2023-02-23T04:55:47.826Z,23.10
2023-02-23T04:58:15.929Z,21.80
2023-02-23T05:00:44.301Z,32.75
2023-02-23T05:03:12.957Z,19.42
2023-02-23T05:05:42.781Z,24.48
2023-02-23T05:08:11.707Z,24.75
2023-02-23T05:10:40.519Z,25.80
2023-02-23T05:13:09.072Z,29.27
2023-02-23T05:15:37.414Z,25.55
2023-02-23T05:18:07.238Z,24.33
2023-02-23T05:20:35.467Z,25.15
2023-02-23T05:23:05.158Z,23.17
2023-02-23T05:25:33.602Z,27.73
2023-02-23T05:28:03.805Z,24.92
2023-02-23T05:30:33.125Z,24.25
2023-02-23T05:33:01.958Z,20.92
2023-02-23T05:35:30.268Z,27.80
2023-02-23T05:37:58.488Z,22.92
2023-02-23T05:40:28.059Z,27.92
2023-02-23T05:45:29.269Z,27.83
2023-02-23T05:47:58.895Z,21.88
2023-02-23T05:50:27.684Z,25.23
2023-02-23T05:52:55.823Z,31.27
2023-02-23T05:55:25.824Z,38.13
2023-02-23T05:57:55.385Z,25.65
2023-02-23T06:00:24.362Z,26.15
2023-02-23T06:02:54.226Z,29.20
2023-02-23T06:05:22.609Z,30.15
2023-02-23T06:07:51.995Z,35.78
2023-02-23T06:10:20.179Z,30.27
2023-02-23T06:12:48.805Z,30.67
2023-02-23T06:15:19.821Z,31.30
2023-02-23T06:17:48.310Z,25.23
2023-02-23T06:20:17.293Z,21.65
2023-02-23T06:22:45.393Z,24.02
2023-02-23T06:25:13.965Z,28.38
2023-02-23T06:27:42.594Z,25.60
2023-02-23T06:30:12.736Z,28.27
2023-02-23T06:32:43.046Z,24.90
2023-02-23T06:35:15.725Z,28.50
2023-02-23T06:37:44.481Z,28.00
2023-02-23T06:40:13.227Z,27.20
2023-02-23T06:42:41.462Z,31.05
2023-02-23T06:45:11.712Z,24.75
2023-02-23T06:47:41.862Z,26.77
2023-02-23T06:50:11.816Z,26.60
2023-02-23T06:52:42.635Z,28.48
2023-02-23T06:55:11.216Z,25.38
2023-02-23T06:57:41.477Z,22.95
2023-02-23T07:00:11.015Z,24.45
2023-02-23T07:02:39.534Z,27.90
2023-02-23T07:05:10.506Z,25.27
2023-02-23T07:07:39.079Z,25.60
2023-02-23T07:10:08.774Z,30.00
2023-02-23T07:12:38.693Z,27.15
2023-02-23T07:15:07.959Z,32.33
2023-02-23T07:17:36.540Z,27.77
2023-02-23T07:20:06.347Z,34.20
2023-02-23T07:22:36.204Z,29.05
2023-02-23T07:25:05.384Z,25.25
2023-02-23T07:27:36.153Z,31.10
2023-02-23T07:30:07.057Z,31.52
2023-02-23T07:32:35.469Z,28.00
2023-02-23T07:35:04.608Z,27.52
2023-02-23T07:37:33.637Z,24.13
2023-02-23T07:40:04.032Z,29.80
2023-02-23T07:42:32.621Z,26.45
2023-02-23T07:45:01.451Z,29.17
2023-02-23T07:47:31.149Z,36.85
2023-02-23T07:55:00.631Z,25.40
2023-02-23T07:57:32.937Z,31.15
2023-02-23T08:00:02.793Z,24.88
2023-02-23T08:02:41.312Z,24.60
2023-02-23T08:05:10.082Z,26.17
2023-02-23T08:07:40.498Z,30.58
2023-02-23T08:10:12.338Z,26.55
2023-02-23T08:12:44.428Z,32.30
2023-02-23T08:15:13.124Z,24.63
2023-02-23T08:17:41.984Z,28.25
2023-02-23T08:20:12.683Z,22.30
2023-02-23T08:22:49.464Z,22.15
2023-02-23T08:25:19.374Z,23.58
2023-02-23T08:27:52.714Z,28.15
2023-02-23T08:30:22.284Z,30.88
2023-02-23T08:32:52.859Z,26.00
2023-02-23T08:35:23.120Z,23.83
2023-02-23T08:37:52.123Z,24.65
2023-02-23T08:40:22.149Z,28.88
2023-02-23T08:42:52.298Z,25.70
2023-02-23T08:45:21.556Z,24.05
2023-02-23T08:47:50.067Z,27.38
2023-02-23T08:50:18.683Z,22.23
2023-02-23T08:52:48.882Z,27.67
2023-02-23T08:55:18.608Z,24.50
2023-02-23T08:57:46.871Z,27.75
2023-02-23T09:00:17.904Z,27.92
2023-02-23T09:02:48.156Z,26.15
2023-02-23T09:05:17.631Z,26.52
2023-02-23T09:07:47.674Z,28.30
2023-02-23T09:10:24.032Z,25.60
2023-02-23T09:12:52.993Z,30.83
2023-02-23T09:15:22.872Z,24.77
2023-02-23T09:20:19.861Z,25.80
2023-02-23T09:22:49.819Z,28.30
2023-02-23T09:25:22.838Z,21.98
2023-02-23T09:27:52.776Z,19.08
2023-02-23T09:32:52.451Z,27.10
2023-02-23T09:35:24.548Z,25.92
2023-02-23T09:37:54.896Z,22.40
2023-02-23T09:40:25.892Z,24.75
2023-02-23T09:43:01.567Z,28.90
2023-02-23T09:45:39.680Z,29.92
2023-02-23T09:48:20.352Z,24.70
2023-02-23T09:50:51.992Z,27.80
2023-02-23T09:53:34.592Z,22.02
2023-02-23T09:56:08.730Z,20.67
2023-02-23T09:58:37.466Z,21.17
2023-02-23T10:01:42.227Z,20.70
2023-02-23T10:04:17.282Z,20.38
2023-02-23T10:06:50.060Z,19.05
2023-02-23T10:09:27.962Z,22.42
2023-02-23T10:12:07.721Z,17.73
2023-02-23T10:14:56.247Z,20.58
2023-02-23T10:17:36.709Z,19.10
2023-02-23T10:20:15.319Z,18.73
2023-02-23T10:22:46.839Z,18.95
2023-02-23T10:25:21.324Z,18.63
2023-02-23T10:27:52.383Z,19.20
2023-02-23T10:30:24.945Z,19.67
2023-02-23T10:33:00.911Z,17.98
2023-02-23T10:35:32.484Z,16.55
2023-02-23T10:38:02.963Z,24.77
2023-02-23T10:40:34.234Z,16.90
2023-02-23T10:43:03.372Z,14.30
2023-02-23T10:45:46.624Z,21.90
2023-02-23T10:48:24.425Z,11.63
2023-02-23T10:51:00.260Z,16.77
2023-02-23T10:53:36.663Z,13.10
2023-02-23T10:56:11.077Z,14.63
2023-02-23T10:58:46.321Z,14.65
2023-02-23T11:01:15.730Z,14.95
2023-02-23T11:04:05.352Z,14.93
2023-02-23T11:06:39.452Z,12.88
2023-02-23T11:09:41.322Z,11.98
2023-02-23T11:12:21.913Z,14.10
2023-02-23T11:14:51.595Z,12.48
2023-02-23T11:17:30.252Z,10.85
2023-02-23T11:20:19.799Z,13.38
2023-02-23T11:22:48.701Z,13.88
2023-02-23T11:25:25.755Z,11.25
2023-02-23T11:27:57.139Z,11.52
2023-02-23T11:30:30.465Z,11.40
2023-02-23T11:33:09.600Z,10.63
2023-02-23T11:35:39.964Z,11.73
2023-02-23T11:38:25.552Z,10.48
2023-02-23T11:41:02.105Z,9.10
2023-02-23T11:43:31.885Z,11.18
2023-02-23T11:46:04.346Z,9.57
2023-02-23T11:48:35.652Z,9.60
2023-02-23T11:51:06.825Z,9.38
2023-02-23T11:53:38.203Z,8.07
2023-02-23T11:56:11.187Z,10.15
2023-02-23T11:58:42.231Z,9.52
2023-02-23T12:01:16.935Z,10.35
2023-02-23T12:03:49.314Z,12.30
2023-02-23T12:06:30.823Z,6.75
2023-02-23T12:09:06.244Z,6.30
2023-02-23T12:11:40.673Z,6.90
2023-02-23T12:14:19.933Z,7.22
2023-02-23T12:16:53.580Z,5.18
2023-02-23T12:19:27.819Z,6.03
2023-02-23T12:22:06.602Z,5.25
2023-02-23T12:24:48.232Z,5.80
2023-02-23T12:27:19.090Z,4.68
2023-02-23T12:30:08.364Z,7.47
2023-02-23T12:32:46.940Z,7.07
2023-02-23T12:35:20.940Z,8.30
2023-02-23T12:37:55.081Z,5.13
2023-02-23T12:40:28.454Z,4.63
2023-02-23T12:43:03.470Z,3.67
2023-02-23T12:45:38.544Z,10.45
2023-02-23T12:48:20.184Z,4.35
2023-02-23T12:50:54.417Z,7.25
2023-02-23T12:53:30.516Z,5.03
2023-02-23T12:56:19.466Z,5.05
2023-02-23T12:58:59.296Z,5.97
2023-02-23T13:01:31.693Z,4.00
2023-02-23T13:04:20.142Z,3.53
2023-02-23T13:06:55.931Z,4.20
2023-02-23T13:09:39.194Z,7.03
2023-02-23T13:12:18.061Z,5.32
2023-02-23T13:14:56.032Z,3.97
2023-02-23T13:17:37.645Z,3.90
2023-02-23T13:20:13.980Z,2.83
2023-02-23T13:22:50.463Z,3.47
2023-02-23T13:25:29.628Z,3.20
2023-02-23T13:28:02.150Z,5.57
2023-02-23T13:30:33.737Z,4.50
2023-02-23T13:33:12.325Z,4.90
2023-02-23T13:35:42.298Z,3.78
2023-02-23T13:38:22.622Z,4.07
2023-02-23T13:41:00.652Z,3.00
2023-02-23T13:43:35.160Z,2.88
2023-02-23T13:46:32.521Z,7.88
2023-02-23T13:51:39.369Z,2.67
2023-02-23T13:54:24.389Z,4.72
2023-02-23T13:56:58.390Z,3.45
2023-02-23T13:59:30.443Z,5.47
2023-02-23T14:02:03.485Z,3.55
2023-02-23T14:04:37.301Z,4.45
2023-02-23T14:07:18.672Z,3.72
2023-02-23T14:09:54.866Z,6.30
2023-02-23T14:12:28.235Z,3.72
2023-02-23T14:14:56.844Z,5.05
2023-02-23T14:17:43.880Z,5.68
2023-02-23T14:20:29.541Z,6.63
2023-02-23T14:23:29.945Z,4.85
2023-02-23T14:26:17.065Z,4.70
2023-02-23T14:29:08.198Z,6.82
2023-02-23T14:31:37.765Z,4.00
2023-02-23T14:34:09.493Z,4.63
2023-02-23T14:36:44.296Z,4.95
2023-02-23T14:39:19.577Z,5.78
2023-02-23T14:41:51.623Z,3.72
2023-02-23T14:44:30.106Z,6.03
2023-02-23T14:47:09.268Z,4.03
2023-02-23T14:49:41.341Z,3.95
2023-02-23T14:52:20.735Z,4.40
2023-02-23T14:54:50.556Z,5.30
2023-02-23T14:57:22.815Z,9.32
2023-02-23T14:59:58.190Z,4.60
2023-02-23T15:02:29.595Z,4.40
2023-02-23T15:04:58.466Z,7.25
2023-02-23T15:07:33.624Z,4.85
2023-02-23T15:10:06.119Z,4.47
2023-02-23T15:12:38.232Z,6.25
2023-02-23T15:15:18.390Z,5.60
2023-02-23T15:17:49.819Z,5.97
2023-02-23T15:20:23.491Z,4.03
2023-02-23T15:22:55.649Z,4.20
2023-02-23T15:25:27.859Z,6.90
2023-02-23T15:27:57.067Z,6.75
2023-02-23T15:30:30.653Z,11.80
2023-02-23T15:33:08.630Z,4.05
2023-02-23T15:35:42.558Z,5.93
2023-02-23T15:38:18.096Z,7.13
2023-02-23T15:40:57.876Z,6.65
2023-02-23T15:43:29.936Z,6.03
2023-02-23T15:46:04.504Z,6.10
2023-02-23T15:48:46.163Z,4.70
2023-02-23T15:51:30.650Z,8.40
2023-02-23T15:54:00.662Z,7.38
2023-02-23T15:56:33.151Z,6.38
2023-02-23T15:59:05.237Z,7.47
2023-02-23T16:01:44.591Z,5.05
2023-02-23T16:04:19.448Z,5.57
2023-02-23T16:06:53.434Z,5.97
2023-02-23T16:09:30.322Z,8.38
2023-02-23T16:12:04.602Z,9.15
2023-02-23T16:14:36.992Z,8.48
2023-02-23T16:17:15.238Z,5.38
2023-02-23T16:19:45.750Z,4.70
2023-02-23T16:22:22.865Z,4.60
2023-02-23T16:24:59.740Z,4.43
2023-02-23T16:27:29.654Z,4.63
2023-02-23T16:30:01.219Z,7.15
2023-02-23T16:32:42.438Z,4.15
2023-02-23T16:35:17.338Z,5.63
2023-02-23T16:38:00.377Z,6.07
2023-02-23T16:40:29.755Z,3.97
2023-02-23T16:42:59.602Z,6.20
2023-02-23T16:45:29.579Z,6.90
2023-02-23T16:48:03.148Z,8.20
2023-02-23T16:50:33.717Z,5.93
2023-02-23T16:53:03.392Z,6.75
2023-02-23T16:58:11.130Z,4.38
2023-02-23T17:00:39.383Z,5.60
2023-02-23T17:03:17.382Z,8.07
2023-02-23T17:05:46.079Z,6.20
2023-02-23T17:08:15.168Z,5.57
2023-02-23T17:10:47.581Z,6.70
2023-02-23T17:13:19.017Z,8.38
2023-02-23T17:15:53.648Z,7.53
2023-02-23T17:18:28.174Z,5.93
2023-02-23T17:20:58.551Z,5.22
2023-02-23T17:23:38.232Z,6.95
2023-02-23T17:28:37.633Z,3.92
2023-02-23T17:31:07.130Z,5.65
2023-02-23T17:33:37.765Z,7.63
2023-02-23T17:36:08.640Z,6.47
2023-02-23T17:38:36.934Z,9.18
2023-02-23T17:41:08.951Z,6.10
2023-02-23T17:43:38.729Z,9.15
2023-02-23T17:46:07.050Z,9.30
2023-02-23T17:48:37.271Z,8.43
2023-02-23T17:51:12.377Z,6.70
2023-02-23T17:53:41.718Z,7.55
2023-02-23T17:56:13.345Z,10.20
2023-02-23T17:58:42.222Z,8.25
2023-02-23T18:01:11.056Z,10.40
2023-02-23T18:03:40.723Z,8.90
2023-02-23T18:06:11.616Z,8.77
2023-02-23T18:08:41.924Z,7.32
2023-02-23T18:11:12.324Z,7.03
2023-02-23T18:13:40.841Z,7.88
2023-02-23T18:16:10.862Z,6.88
2023-02-23T18:18:43.359Z,8.68
2023-02-23T18:21:14.024Z,10.13
2023-02-23T18:23:42.230Z,9.85
2023-02-23T18:26:13.532Z,9.75
2023-02-23T18:28:44.448Z,8.65
2023-02-23T18:31:15.895Z,9.25
2023-02-23T18:33:49.621Z,8.27
2023-02-23T18:36:21.188Z,14.38
2023-02-23T18:38:49.567Z,8.98
2023-02-23T18:41:20.197Z,13.98
2023-02-23T18:43:49.648Z,10.27
2023-02-23T18:46:17.970Z,12.88
2023-02-23T18:48:51.663Z,10.35
2023-02-23T18:51:21.070Z,8.65
2023-02-23T18:53:50.498Z,10.38
2023-02-23T18:56:23.475Z,10.00
2023-02-23T18:58:53.284Z,8.15
2023-02-23T19:01:25.091Z,8.63
2023-02-23T19:03:58.928Z,10.45
2023-02-23T19:06:28.862Z,10.48
2023-02-23T19:08:59.977Z,11.20
2023-02-23T19:11:30.527Z,8.15
2023-02-23T19:14:02.940Z,12.55
2023-02-23T19:16:32.712Z,9.98
2023-02-23T19:19:02.880Z,7.95
2023-02-23T19:21:31.784Z,10.10
2023-02-23T19:24:02.366Z,12.40
2023-02-23T19:26:33.598Z,9.38
2023-02-23T19:29:02.246Z,8.48
2023-02-23T19:31:30.558Z,10.70
2023-02-23T19:33:59.794Z,8.13
2023-02-23T19:36:31.740Z,10.60
2023-02-23T19:39:05.821Z,14.23
2023-02-23T19:41:35.541Z,9.98
2023-02-23T19:44:03.991Z,9.25
2023-02-23T19:46:32.216Z,10.05
2023-02-23T19:49:00.833Z,10.05
2023-02-23T19:51:31.131Z,9.27
2023-02-23T19:53:59.906Z,17.52
2023-02-23T19:56:29.194Z,7.85
2023-02-23T19:58:57.989Z,8.57
2023-02-23T20:01:28.612Z,13.30
2023-02-23T20:04:02.206Z,16.90
2023-02-23T20:06:36.207Z,11.07
2023-02-23T20:09:05.896Z,12.88
2023-02-23T20:14:05.455Z,11.57
2023-02-23T20:16:34.101Z,11.07
2023-02-23T20:19:03.814Z,13.45
2023-02-23T20:21:34.311Z,18.92
2023-02-23T20:24:05.440Z,10.60
2023-02-23T20:26:35.466Z,11.48
2023-02-23T20:29:07.163Z,11.77
2023-02-23T20:31:37.474Z,13.18
2023-02-23T20:34:09.205Z,21.27
2023-02-23T20:36:39.937Z,10.82
2023-02-23T20:39:09.414Z,12.30
2023-02-23T20:41:37.677Z,13.15
2023-02-23T20:44:06.370Z,13.77
2023-02-23T20:46:34.869Z,11.88
2023-02-23T20:49:03.950Z,13.27
2023-02-23T20:51:32.690Z,14.07
2023-02-23T20:54:02.373Z,11.68
2023-02-23T20:59:01.171Z,16.98
2023-02-23T21:01:31.883Z,13.82
2023-02-23T21:04:01.467Z,16.55
2023-02-23T21:06:32.882Z,14.90
2023-02-23T21:09:17.198Z,17.73
2023-02-23T21:11:48.278Z,14.43
2023-02-23T21:14:17.749Z,11.15
2023-02-23T21:16:46.442Z,11.93
2023-02-23T21:19:17.456Z,15.75
2023-02-23T21:21:50.528Z,16.95
2023-02-23T21:24:20.955Z,16.58
2023-02-23T21:26:49.246Z,14.50
2023-02-23T21:29:18.572Z,15.77
2023-02-23T21:31:48.297Z,13.60
2023-02-23T21:34:19.786Z,11.93
2023-02-23T21:36:48.264Z,26.42
2023-02-23T21:39:17.807Z,14.73
2023-02-23T21:41:48.980Z,13.82
2023-02-23T21:44:19.016Z,11.88
2023-02-23T21:46:50.856Z,14.70
2023-02-23T21:49:22.139Z,15.00
2023-02-23T21:51:52.465Z,16.90
2023-02-23T21:54:21.883Z,15.23
2023-02-23T21:56:51.711Z,16.98
2023-02-23T21:59:21.502Z,12.60
2023-02-23T22:04:19.303Z,13.95
2023-02-23T22:06:47.619Z,15.65
2023-02-23T22:09:15.937Z,12.07
2023-02-23T22:11:46.729Z,12.98
2023-02-23T22:14:18.978Z,14.85
2023-02-23T22:16:47.567Z,11.18
2023-02-23T22:19:16.482Z,16.20
2023-02-23T22:21:48.311Z,15.97
2023-02-23T22:24:18.134Z,16.83
2023-02-23T22:26:50.783Z,18.05
2023-02-23T22:29:20.504Z,13.70
2023-02-23T22:34:20.330Z,13.27
2023-02-23T22:36:51.669Z,15.45
2023-02-23T22:39:21.050Z,16.58
2023-02-23T22:41:49.838Z,18.97
2023-02-23T22:44:22.607Z,15.93
2023-02-23T22:46:52.438Z,17.52
2023-02-23T22:49:20.823Z,16.98
2023-02-23T22:51:50.382Z,11.80
2023-02-23T22:54:24.066Z,19.48
2023-02-23T22:56:52.749Z,17.92
2023-02-23T22:59:22.501Z,15.98
2023-02-23T23:01:56.405Z,17.10
2023-02-23T23:04:26.127Z,21.52
2023-02-23T23:09:25.939Z,17.10
2023-02-23T23:11:58.032Z,21.58
2023-02-23T23:14:28.150Z,13.80
2023-02-23T23:16:56.659Z,17.65
2023-02-23T23:19:24.975Z,22.40
2023-02-23T23:21:55.809Z,14.73
2023-02-23T23:24:26.429Z,20.27
2023-02-23T23:26:56.131Z,19.35
2023-02-23T23:32:01.547Z,15.98
2023-02-23T23:34:33.420Z,15.75
2023-02-23T23:37:02.690Z,17.73
2023-02-23T23:39:31.119Z,15.65
2023-02-23T23:42:01.978Z,18.50
2023-02-23T23:44:30.494Z,19.65
2023-02-23T23:47:05.590Z,24.33
2023-02-23T23:49:38.747Z,21.92
2023-02-23T23:52:07.332Z,17.35
2023-02-23T23:54:39.349Z,21.05
2023-02-23T23:57:11.505Z,22.67
2023-02-23T23:59:45.664Z,28.90
